Miltona, Minnesota
Current Conditions -  °F | °C
As of 4:00 AM on Friday 19 Dec 2014 (Local Time) from KAXN Reporting Station
Haze Haze  
Wind Chill: -12°   Ceiling: 500
Heat Index: -6°   Visibility: 3mi
Dew Point: -7°   Wind: 9mph
Humidity: 92%   Direction: 150°SSE
Pressure: 30.16"   Gusts: NA
Location:  46.04°N, 95.29°W
Report Text: KAXN 191000Z AUTO 15008KT 3SM BR OVC005 M06/M07 A3016 RMK AO2 T10611072
Loading
Personal Weather Stations






























Interactive Weather Map New forecast layout! Learn more

10-Day Weather Forecast

Advertisements
Track Severe Weather on mobile